Time;durP1;ratioP1;P1;durP2;ratioP2;P2;SDS_P1;SDS_P2;PMS_P1;PMS_P2;Temp;Humidity;BMP_temperature;BMP_pressure;BME280_temperature;BME280_humidity;BME280_pressure;Samples;Min_cycle;Max_cycle;Signal;HPM_P1;HPM_P2
2021/10/10 00:00:29;;;;;;;9.05;7.13;;;;;;;10.95;87.14;100597.78;5050065;28;20112;-51
2021/10/10 00:02:55;;;;;;;11.15;7.18;;;;;;;10.84;86.79;100600.94;5051743;28;20029;-49
2021/10/10 00:05:20;;;;;;;11.30;7.85;;;;;;;10.95;87.34;100597.78;5052032;28;20452;-52
2021/10/10 00:07:46;;;;;;;10.50;7.70;;;;;;;11.10;87.51;100586.28;5051880;28;20044;-49
2021/10/10 00:10:12;;;;;;;12.23;8.63;;;;;;;11.62;85.43;100589.75;5051567;28;20036;-49
2021/10/10 00:12:38;;;;;;;10.25;7.97;;;;;;;11.19;86.51;100592.34;5051569;28;20098;-50
2021/10/10 00:15:05;;;;;;;9.48;7.13;;;;;;;10.81;87.94;100582.63;5051627;28;20456;-51
2021/10/10 00:17:31;;;;;;;9.88;7.95;;;;;;;10.88;88.55;100580.91;5051758;28;20029;-51
2021/10/10 00:19:56;;;;;;;10.50;8.18;;;;;;;10.86;89.46;100580.25;5051474;28;20029;-49
2021/10/10 00:22:22;;;;;;;12.00;8.75;;;;;;;11.37;85.94;100583.97;5051537;28;20032;-51
2021/10/10 00:24:47;;;;;;;9.50;7.65;;;;;;;11.14;87.01;100576.94;5051208;28;20469;-49
2021/10/10 00:27:12;;;;;;;11.10;7.60;;;;;;;11.12;87.08;100576.28;5050200;28;20021;-51
2021/10/10 00:29:38;;;;;;;8.98;7.50;;;;;;;10.63;87.12;100521.81;5051128;28;20441;-49
2021/10/10 00:32:04;;;;;;;10.30;7.63;;;;;;;11.02;88.35;100581.06;5050865;28;20377;-50
2021/10/10 00:34:29;;;;;;;9.70;7.38;;;;;;;11.26;87.47;100572.75;5051504;28;20017;-49
2021/10/10 00:36:55;;;;;;;10.82;8.00;;;;;;;11.83;84.26;100579.09;5051025;28;20420;-49
2021/10/10 00:39:20;;;;;;;10.43;7.25;;;;;;;11.41;84.93;100578.06;5051207;28;20051;-49
2021/10/10 00:41:45;;;;;;;7.93;6.75;;;;;;;11.06;87.00;100572.53;5051179;28;20028;-49
2021/10/10 00:44:11;;;;;;;8.82;6.18;;;;;;;10.91;87.13;100572.56;5050846;28;20063;-49
2021/10/10 00:46:37;;;;;;;7.20;5.60;;;;;;;10.88;88.77;100558.78;5051122;28;20033;-50
2021/10/10 00:49:03;;;;;;;9.27;7.45;;;;;;;11.31;87.01;100573.03;5051055;28;20023;-48
2021/10/10 00:51:30;;;;;;;11.30;8.52;;;;;;;11.12;85.90;100571.78;5051069;28;20036;-49
2021/10/10 00:53:55;;;;;;;15.88;10.25;;;;;;;10.98;86.78;100553.97;5049062;28;20468;-47
2021/10/10 00:56:22;;;;;;;17.33;11.50;;;;;;;10.95;87.15;100563.19;5053009;28;20024;-50
2021/10/10 00:58:48;;;;;;;25.27;14.15;;;;;;;11.04;86.43;100563.06;5070736;28;20021;-48
2021/10/10 01:01:15;;;;;;;23.67;13.98;;;;;;;11.05;86.64;100559.41;5053019;28;20507;-48
2021/10/10 01:03:40;;;;;;;17.73;12.50;;;;;;;10.81;87.73;100561.34;5069553;28;20052;-51
2021/10/10 01:06:06;;;;;;;18.67;12.18;;;;;;;10.90;88.15;100559.41;5070607;28;20017;-49
2021/10/10 01:08:31;;;;;;;16.83;12.10;;;;;;;10.94;86.87;100561.50;5069039;28;20017;-50
2021/10/10 01:10:57;;;;;;;14.38;9.70;;;;;;;11.05;86.51;100562.06;5052872;28;20025;-51
2021/10/10 01:13:22;;;;;;;9.63;7.22;;;;;;;10.92;86.64;100555.53;5068989;28;20020;-49
2021/10/10 01:15:48;;;;;;;9.63;7.03;;;;;;;11.07;86.35;100563.53;5070686;28;20033;-47
2021/10/10 01:18:20;;;;;;;8.15;6.07;;;;;;;11.10;85.78;100554.31;5070541;28;20467;-51
2021/10/10 01:20:46;;;;;;;7.82;6.00;;;;;;;11.00;86.05;100561.78;5070313;28;20507;-49
2021/10/10 01:23:12;;;;;;;7.80;6.30;;;;;;;10.92;87.16;100555.53;5069727;28;20016;-48
2021/10/10 01:25:37;;;;;;;9.00;6.68;;;;;;;10.89;88.06;100560.41;5059925;28;20021;-49
2021/10/10 01:28:03;;;;;;;8.52;6.43;;;;;;;10.99;87.73;100562.81;5050190;28;20071;-48
2021/10/10 01:30:29;;;;;;;8.13;6.22;;;;;;;10.96;87.16;100553.34;5050351;28;20064;-48
2021/10/10 01:32:54;;;;;;;8.40;6.05;;;;;;;11.15;86.53;100559.91;5050589;28;20361;-49
2021/10/10 01:35:20;;;;;;;6.93;5.28;;;;;;;11.17;85.98;100557.91;5050180;28;20021;-47
2021/10/10 01:37:46;;;;;;;6.10;4.90;;;;;;;10.94;87.91;100558.84;5050712;28;20021;-48
2021/10/10 01:40:12;;;;;;;6.28;4.40;;;;;;;10.85;87.92;100557.31;5050286;28;20021;-47
2021/10/10 01:42:37;;;;;;;5.20;4.47;;;;;;;10.93;87.02;100556.41;5049987;28;20025;-49
2021/10/10 01:45:04;;;;;;;5.32;4.38;;;;;;;10.82;88.42;100554.19;5050032;28;20032;-47
2021/10/10 01:47:29;;;;;;;5.57;4.20;;;;;;;10.99;87.69;100552.16;5050032;28;20032;-48
2021/10/10 01:49:55;;;;;;;4.90;4.10;;;;;;;10.76;88.44;100551.25;5050208;28;20037;-47
2021/10/10 01:52:20;;;;;;;5.68;4.10;;;;;;;10.85;87.78;100559.13;5053731;28;20138;-47
2021/10/10 01:54:46;;;;;;;5.22;4.28;;;;;;;10.95;87.66;100565.03;5070197;28;20048;-50
2021/10/10 01:57:11;;;;;;;5.88;4.53;;;;;;;10.86;88.39;100566.94;5070073;28;20040;-49
2021/10/10 01:59:36;;;;;;;4.90;3.95;;;;;;;10.80;87.64;100570.34;5064994;28;20025;-48
2021/10/10 02:02:02;;;;;;;5.20;4.30;;;;;;;10.92;87.70;100560.88;5050054;28;20103;-48
2021/10/10 02:04:28;;;;;;;4.97;4.20;;;;;;;11.03;87.71;100566.75;5049807;28;20477;-47
2021/10/10 02:06:53;;;;;;;5.95;4.40;;;;;;;11.05;86.78;100575.38;5053688;28;20021;-48
2021/10/10 02:09:18;;;;;;;4.85;4.03;;;;;;;10.85;86.98;100569.78;5054125;28;20025;-48
2021/10/10 02:11:44;;;;;;;5.70;4.32;;;;;;;11.07;87.33;100568.03;5053721;28;20499;-48
2021/10/10 02:14:10;;;;;;;5.40;4.32;;;;;;;10.96;87.44;100564.81;5053840;28;20040;-47
2021/10/10 02:16:35;;;;;;;5.80;4.25;;;;;;;10.92;87.02;100568.03;5054009;28;20032;-49
2021/10/10 02:19:00;;;;;;;5.30;4.28;;;;;;;10.89;87.65;100563.94;5053942;28;20025;-48
2021/10/10 02:21:26;;;;;;;6.47;4.07;;;;;;;10.74;89.11;100566.59;5053625;28;20397;-50
2021/10/10 02:23:51;;;;;;;6.70;4.45;;;;;;;10.86;88.29;100563.47;5053593;28;20029;-51
2021/10/10 02:26:17;;;;;;;5.30;4.00;;;;;;;10.92;87.54;100563.53;5053758;28;20032;-49
2021/10/10 02:28:42;;;;;;;5.38;4.13;;;;;;;11.03;87.44;100567.56;5053401;28;20029;-51
2021/10/10 02:31:08;;;;;;;5.00;4.10;;;;;;;11.03;86.57;100562.25;5053660;28;20049;-49
2021/10/10 02:33:33;;;;;;;5.68;4.38;;;;;;;10.86;87.84;100564.28;5053662;28;20025;-50
2021/10/10 02:35:58;;;;;;;5.15;4.15;;;;;;;10.93;87.89;100557.22;5053656;28;20495;-49
2021/10/10 02:38:24;;;;;;;6.15;4.22;;;;;;;10.94;87.38;100569.50;5053552;28;20353;-52
2021/10/10 02:40:49;;;;;;;5.18;4.00;;;;;;;10.94;87.75;100564.16;5053278;28;20024;-50
2021/10/10 02:43:15;;;;;;;5.00;4.10;;;;;;;10.78;88.17;100568.91;5053153;28;20037;-50
2021/10/10 02:45:40;;;;;;;5.03;4.10;;;;;;;10.75;88.87;100562.91;5053187;28;20082;-47
2021/10/10 02:48:06;;;;;;;5.30;4.13;;;;;;;10.65;89.28;100562.38;5052927;28;20508;-49
2021/10/10 02:50:31;;;;;;;4.40;4.00;;;;;;;10.82;89.07;100555.03;5051314;28;20029;-51
2021/10/10 02:52:58;;;;;;;6.53;3.97;;;;;;;10.96;86.94;100559.47;5051359;28;20028;-50
2021/10/10 02:55:24;;;;;;;4.88;4.32;;;;;;;11.07;87.33;100547.53;5053005;28;20092;-52
2021/10/10 02:57:49;;;;;;;4.40;3.97;;;;;;;10.91;87.23;100545.91;5052805;28;20013;-48
2021/10/10 03:00:15;;;;;;;6.03;4.68;;;;;;;10.68;88.26;100540.72;5053005;28;20441;-52
2021/10/10 03:02:40;;;;;;;6.38;4.25;;;;;;;10.72;88.99;100543.84;5052701;28;20143;-51
2021/10/10 03:05:06;;;;;;;6.15;4.45;;;;;;;10.65;89.87;100548.25;5052539;28;20040;-48
2021/10/10 03:07:31;;;;;;;6.13;4.60;;;;;;;10.77;88.36;100541.44;5052586;28;20032;-48
2021/10/10 03:09:57;;;;;;;8.85;5.97;;;;;;;10.82;88.14;100539.03;5052631;28;20036;-51
2021/10/10 03:12:22;;;;;;;10.18;6.75;;;;;;;10.54;89.20;100537.03;5053088;28;20715;-48
2021/10/10 03:14:48;;;;;;;10.65;7.57;;;;;;;10.82;88.88;100523.06;5052410;28;20032;-50
2021/10/10 03:17:13;;;;;;;19.15;11.48;;;;;;;10.89;87.60;100529.31;5051823;28;20032;-48
2021/10/10 03:19:39;;;;;;;4.78;3.85;;;;;;;10.84;88.65;100528.22;5052616;28;20029;-50
2021/10/10 03:22:04;;;;;;;4.40;3.70;;;;;;;10.80;87.56;100522.44;5052234;28;20033;-48
2021/10/10 03:24:29;;;;;;;4.20;3.63;;;;;;;10.67;89.70;100520.41;5052364;28;20463;-49
2021/10/10 03:26:55;;;;;;;5.50;3.80;;;;;;;10.75;88.68;100522.16;5052429;28;20032;-48
2021/10/10 03:29:20;;;;;;;3.95;3.42;;;;;;;10.83;88.69;100527.38;5050926;28;20041;-48
2021/10/10 03:31:46;;;;;;;4.60;3.72;;;;;;;10.65;89.21;100524.28;5051927;28;20110;-49
2021/10/10 03:34:11;;;;;;;4.03;3.63;;;;;;;10.78;88.97;100524.47;5052169;28;20025;-49
2021/10/10 03:36:37;;;;;;;5.07;3.92;;;;;;;10.78;88.42;100524.47;5052202;28;20033;-49
2021/10/10 03:39:02;;;;;;;4.03;3.53;;;;;;;10.79;88.43;100517.28;5052240;28;20025;-49
2021/10/10 03:41:28;;;;;;;4.05;3.65;;;;;;;10.88;87.21;100514.34;5052467;28;20032;-50
2021/10/10 03:43:53;;;;;;;7.40;3.95;;;;;;;10.94;87.04;100518.91;5052686;28;20029;-48
2021/10/10 03:46:19;;;;;;;30.58;16.52;;;;;;;10.86;87.71;100520.88;5052417;28;20102;-50
2021/10/10 03:48:44;;;;;;;4.32;3.40;;;;;;;10.72;88.35;100520.69;5052224;28;20145;-48
2021/10/10 03:51:10;;;;;;;5.18;3.40;;;;;;;10.87;87.49;100527.81;5052075;28;20032;-48
2021/10/10 03:54:57;;;;;;;4.18;3.40;;;;;;;10.82;88.05;100520.41;5052131;28;20040;-47
2021/10/10 03:56:21;;;;;;;5.13;4.05;;;;;;;10.79;87.34;100520.75;5043878;28;20132;-48
2021/10/10 03:58:46;;;;;;;3.58;3.03;;;;;;;10.78;88.12;100521.78;5051749;28;20075;-49
2021/10/10 04:01:12;;;;;;;3.67;3.08;;;;;;;10.77;88.43;100530.78;5051798;28;20029;-48
2021/10/10 04:03:37;;;;;;;5.05;3.05;;;;;;;10.70;87.88;100525.38;5051806;28;20036;-48
2021/10/10 04:06:03;;;;;;;3.45;2.80;;;;;;;10.84;86.97;100515.72;5051770;28;20040;-51
2021/10/10 04:08:29;;;;;;;3.55;3.00;;;;;;;10.74;87.19;100526.66;5051485;28;20029;-51
2021/10/10 04:10:55;;;;;;;4.90;3.20;;;;;;;10.82;87.19;100523.06;5051904;28;20126;-49
2021/10/10 04:13:20;;;;;;;3.00;2.70;;;;;;;10.83;87.39;100523.88;5051789;28;20029;-51
2021/10/10 04:15:46;;;;;;;3.92;2.95;;;;;;;10.79;86.92;100525.28;5051838;28;20047;-48
2021/10/10 04:18:11;;;;;;;3.70;3.30;;;;;;;10.78;88.13;100524.47;5051711;28;20025;-48
2021/10/10 04:20:37;;;;;;;5.32;3.20;;;;;;;10.71;87.66;100535.00;5051413;28;20078;-48
2021/10/10 04:23:02;;;;;;;3.45;3.00;;;;;;;10.80;87.34;100525.09;5051467;28;20108;-48
2021/10/10 04:25:28;;;;;;;6.40;5.53;;;;;;;10.78;86.90;100539.63;5051365;28;20061;-49
2021/10/10 04:27:53;;;;;;;6.50;5.30;;;;;;;10.73;87.77;100535.66;5051332;28;20124;-47
2021/10/10 04:30:19;;;;;;;6.50;5.43;;;;;;;10.55;87.80;100537.88;5051464;28;20060;-47
2021/10/10 04:32:44;;;;;;;9.43;6.25;;;;;;;10.66;88.14;100545.41;5051327;28;20048;-48
2021/10/10 04:35:11;;;;;;;8.00;6.03;;;;;;;10.56;87.94;100542.19;5051111;28;20075;-47
2021/10/10 04:37:36;;;;;;;11.05;7.35;;;;;;;10.80;86.97;100534.94;5051059;28;20036;-48
2021/10/10 04:40:03;;;;;;;11.70;8.10;;;;;;;10.75;86.91;100530.97;5050959;28;20025;-48
2021/10/10 04:42:29;;;;;;;16.85;10.90;;;;;;;10.80;86.85;100538.41;5051349;28;20020;-48
2021/10/10 04:44:54;;;;;;;17.48;11.35;;;;;;;10.76;85.90;100539.78;5051127;28;20116;-48
2021/10/10 04:47:20;;;;;;;20.00;12.95;;;;;;;10.66;87.45;100541.91;5051073;28;20025;-49
2021/10/10 04:49:46;;;;;;;23.38;13.93;;;;;;;10.56;86.83;100544.84;5050990;28;20043;-48
2021/10/10 04:52:11;;;;;;;23.88;13.82;;;;;;;10.75;87.46;100538.94;5050660;28;20037;-48
2021/10/10 04:54:37;;;;;;;23.20;13.55;;;;;;;11.04;85.90;100549.75;5050489;28;20127;-47
2021/10/10 04:57:02;;;;;;;20.92;13.48;;;;;;;11.01;85.86;100548.28;5050910;28;20025;-49
2021/10/10 04:59:28;;;;;;;23.25;12.68;;;;;;;10.97;85.42;100552.34;5050160;28;20025;-49
2021/10/10 05:01:53;;;;;;;19.50;11.95;;;;;;;10.63;86.93;100551.09;5050584;28;20032;-48
2021/10/10 05:04:19;;;;;;;20.48;11.75;;;;;;;10.69;86.59;100539.69;5050495;28;20036;-51
2021/10/10 05:06:44;;;;;;;19.60;12.30;;;;;;;10.73;87.55;100542.81;5050667;28;20024;-49
2021/10/10 05:09:10;;;;;;;17.40;10.35;;;;;;;10.52;87.98;100543.56;5050282;28;20029;-50
2021/10/10 05:11:35;;;;;;;15.40;9.73;;;;;;;10.68;87.80;100553.19;5050626;28;20025;-52
2021/10/10 05:14:01;;;;;;;15.07;9.98;;;;;;;10.80;86.56;100548.25;5050904;28;20025;-51
2021/10/10 05:16:26;;;;;;;12.52;8.77;;;;;;;10.48;88.13;100559.06;5050778;28;20044;-52
2021/10/10 05:18:51;;;;;;;15.25;9.05;;;;;;;10.65;88.83;100553.56;5050758;28;20025;-49
2021/10/10 05:21:17;;;;;;;14.80;8.48;;;;;;;10.54;87.98;100550.34;5050327;28;20036;-49
2021/10/10 05:23:42;;;;;;;10.52;7.65;;;;;;;10.51;88.62;100560.56;5050323;28;20033;-49
2021/10/10 05:26:08;;;;;;;10.65;7.85;;;;;;;10.54;88.44;100552.19;5050249;28;20035;-49
2021/10/10 05:28:34;;;;;;;10.30;7.80;;;;;;;10.63;87.54;100567.06;5050246;28;20037;-51
2021/10/10 05:30:59;;;;;;;10.52;7.65;;;;;;;10.71;88.18;100555.47;5050239;28;20080;-49
2021/10/10 05:33:25;;;;;;;13.13;7.95;;;;;;;10.70;87.84;100554.66;5050519;28;20043;-50
2021/10/10 05:35:50;;;;;;;12.13;6.88;;;;;;;10.81;87.14;100558.69;5048694;28;20056;-52
2021/10/10 05:38:16;;;;;;;10.32;7.22;;;;;;;10.91;87.26;100555.75;5049847;28;20029;-49
2021/10/10 05:40:41;;;;;;;10.07;7.20;;;;;;;10.62;88.06;100556.59;5049462;28;20389;-48
2021/10/10 05:43:07;;;;;;;9.05;6.55;;;;;;;10.53;88.36;100554.03;5050222;28;20090;-48
2021/10/10 05:45:32;;;;;;;9.25;6.80;;;;;;;10.64;88.02;100541.25;5049883;28;20111;-51
2021/10/10 05:47:58;;;;;;;10.75;6.93;;;;;;;10.54;87.81;100570.81;5048551;28;20036;-49
2021/10/10 05:50:23;;;;;;;8.05;6.47;;;;;;;10.47;88.31;100556.56;5050325;28;20025;-48
2021/10/10 05:52:50;;;;;;;14.10;9.88;;;;;;;10.65;87.94;100558.88;5050036;28;20353;-48
2021/10/10 05:55:16;;;;;;;27.65;19.77;;;;;;;10.63;88.04;100556.41;5049927;28;20025;-48
2021/10/10 05:57:47;;;;;;;33.67;21.00;;;;;;;10.75;86.82;100551.44;5049809;28;20035;-49
2021/10/10 06:00:16;;;;;;;13.40;8.77;;;;;;;10.74;87.13;100545.28;5050431;28;20211;-49
2021/10/10 06:02:42;;;;;;;21.75;13.88;;;;;;;11.06;92.20;100524.59;5050525;28;20035;-49
2021/10/10 06:05:09;;;;;;;18.02;14.18;;;;;;;11.08;85.94;100554.53;5050056;28;20033;-49
2021/10/10 06:07:35;;;;;;;15.48;10.40;;;;;;;11.15;85.59;100546.59;5050147;28;20554;-49
2021/10/10 06:10:00;;;;;;;12.00;9.07;;;;;;;10.96;86.20;100553.34;5050308;28;20025;-49
2021/10/10 06:12:25;;;;;;;10.68;8.30;;;;;;;10.82;87.20;100554.19;5049975;28;20437;-47
2021/10/10 06:14:51;;;;;;;11.93;7.78;;;;;;;10.89;86.76;100550.63;5049842;28;20025;-47
2021/10/10 06:17:18;;;;;;;11.50;7.03;;;;;;;10.64;88.18;100565.22;5049917;28;20087;-47
2021/10/10 06:19:44;;;;;;;14.90;8.25;;;;;;;10.88;87.08;100562.25;5049869;28;20082;-48
2021/10/10 06:22:10;;;;;;;14.45;9.10;;;;;;;10.95;86.80;100568.50;5049786;28;20143;-47
2021/10/10 06:24:35;;;;;;;13.73;8.98;;;;;;;10.96;87.22;100562.16;5050263;28;20598;-49
2021/10/10 06:27:02;;;;;;;14.20;10.38;;;;;;;11.07;86.41;100552.88;5048616;28;20443;-49
2021/10/10 06:29:27;;;;;;;15.20;10.27;;;;;;;11.02;86.77;100557.09;5049637;28;20040;-48
2021/10/10 06:31:53;;;;;;;14.45;10.43;;;;;;;11.13;85.80;100559.28;5048816;28;20036;-48
2021/10/10 06:34:18;;;;;;;14.13;11.25;;;;;;;10.77;86.08;100533.44;5048718;28;20021;-50
2021/10/10 06:36:44;;;;;;;16.95;11.95;;;;;;;11.03;86.08;100562.25;5049343;28;20031;-46
2021/10/10 06:39:09;;;;;;;18.65;12.60;;;;;;;11.14;86.65;100568.94;5049136;28;20414;-48
2021/10/10 06:41:35;;;;;;;19.45;12.77;;;;;;;11.18;85.75;100564.88;5049252;28;20017;-47
2021/10/10 06:44:00;;;;;;;18.73;13.13;;;;;;;11.38;84.18;100566.94;5049313;28;20024;-50
2021/10/10 06:46:26;;;;;;;22.30;15.40;;;;;;;11.25;84.90;100557.81;5047796;28;20497;-48
2021/10/10 06:48:51;;;;;;;61.03;34.58;;;;;;;11.26;86.23;100566.63;5047679;28;20116;-50
2021/10/10 06:51:17;;;;;;;23.30;15.90;;;;;;;11.41;85.92;100575.38;5048298;28;20428;-49
2021/10/10 06:53:42;;;;;;;19.50;13.82;;;;;;;11.28;84.08;100573.41;5050322;28;20017;-51
2021/10/10 06:56:08;;;;;;;21.73;14.93;;;;;;;11.29;85.70;100569.72;5051880;28;20435;-49
2021/10/10 06:58:33;;;;;;;20.25;14.80;;;;;;;11.50;84.87;100573.44;5052190;28;20021;-48
2021/10/10 07:00:59;;;;;;;22.67;13.40;;;;;;;11.17;85.37;100562.41;5052406;28;20048;-48
2021/10/10 07:03:24;;;;;;;21.77;12.85;;;;;;;11.20;84.72;100562.84;5052213;28;20029;-47
2021/10/10 07:05:50;;;;;;;21.90;14.68;;;;;;;11.34;85.39;100564.63;5052186;28;20094;-50
2021/10/10 07:08:15;;;;;;;23.00;13.45;;;;;;;11.24;84.88;100564.13;5052136;28;20025;-51
2021/10/10 07:10:41;;;;;;;19.88;13.07;;;;;;;11.28;84.93;100564.59;5052102;28;20692;-48
2021/10/10 07:13:06;;;;;;;20.63;14.00;;;;;;;11.35;85.18;100555.66;5052235;28;20036;-48
2021/10/10 07:15:33;;;;;;;23.70;15.60;;;;;;;11.79;83.16;100569.00;5046633;28;20097;-48
2021/10/10 07:18:01;;;;;;;28.90;16.60;;;;;;;11.71;83.09;100565.44;5034563;28;20036;-48
2021/10/10 07:25:56;;;;;;;19.55;14.23;;;;;;;11.19;87.21;100574.50;5051811;28;20029;-38
2021/10/10 07:28:22;;;;;;;23.98;12.88;;;;;;;11.27;85.92;100577.09;5051382;28;20118;-38
2021/10/10 07:30:48;;;;;;;15.98;9.80;;;;;;;11.10;87.08;100583.63;5051222;28;20500;-38
2021/10/10 07:33:17;;;;;;;15.50;9.80;;;;;;;11.18;87.37;100572.88;5051566;28;20047;-38
2021/10/10 07:35:42;;;;;;;13.38;9.15;;;;;;;11.42;85.49;100577.03;5051365;28;20028;-37
2021/10/10 07:38:08;;;;;;;13.35;8.90;;;;;;;11.31;86.73;100583.69;5051342;28;20075;-38
2021/10/10 07:40:33;;;;;;;10.18;7.15;;;;;;;11.38;86.02;100589.06;5049888;28;20051;-38
2021/10/10 07:42:59;;;;;;;9.73;8.10;;;;;;;11.40;85.97;100584.38;5049556;28;20414;-38
2021/10/10 07:45:25;;;;;;;10.63;7.35;;;;;;;11.63;86.19;100589.56;5048858;28;20017;-38
2021/10/10 07:47:51;;;;;;;9.50;6.38;;;;;;;11.66;83.92;100586.50;5049057;28;20025;-38
2021/10/10 07:50:21;;;;;;;9.63;6.45;;;;;;;11.46;85.71;100588.97;5049281;28;20090;-38
2021/10/10 07:52:46;;;;;;;8.98;6.68;;;;;;;11.51;85.23;100591.88;5048583;28;20041;-38
2021/10/10 07:55:12;;;;;;;6.38;4.90;;;;;;;11.25;85.33;100592.44;5048994;28;20329;-38
2021/10/10 07:57:38;;;;;;;8.55;4.55;;;;;;;11.17;86.15;100591.72;5048077;28;20021;-39
2021/10/10 08:00:07;;;;;;;7.43;5.45;;;;;;;11.30;85.30;100584.69;5055570;28;20024;-39
2021/10/10 08:02:46;;;;;;;6.63;5.18;;;;;;;11.14;85.56;100575.09;5063758;28;20545;-39
2021/10/10 08:05:12;;;;;;;7.05;5.53;;;;;;;11.23;86.97;100572.31;5061193;28;20032;-39
2021/10/10 08:07:37;;;;;;;8.15;5.32;;;;;;;11.21;86.00;100575.16;5056076;28;20218;-42
2021/10/10 08:10:03;;;;;;;9.57;5.55;;;;;;;11.59;85.63;100576.78;5050218;28;20032;-38
2021/10/10 08:12:28;;;;;;;9.85;6.00;;;;;;;11.41;84.59;100546.06;5050680;28;20071;-39
2021/10/10 08:14:54;;;;;;;7.10;5.30;;;;;;;11.51;84.85;100575.91;5050362;28;20017;-38
2021/10/10 08:17:19;;;;;;;9.60;7.05;;;;;;;11.40;85.49;100572.91;5050271;28;20264;-39
2021/10/10 08:19:45;;;;;;;10.55;6.68;;;;;;;11.18;86.69;100577.38;5050507;28;20082;-39
2021/10/10 08:22:10;;;;;;;9.70;7.00;;;;;;;11.11;86.09;100555.97;5050574;28;20028;-39
2021/10/10 08:24:35;;;;;;;9.98;7.65;;;;;;;11.26;87.71;100564.75;5050917;28;20032;-39
2021/10/10 08:27:01;;;;;;;14.23;11.10;;;;;;;11.37;86.50;100573.31;5051164;28;20025;-39
2021/10/10 08:29:26;;;;;;;16.40;11.02;;;;;;;11.26;86.67;100567.44;5051048;28;20534;-37
2021/10/10 08:31:52;;;;;;;17.08;10.80;;;;;;;11.32;86.34;100568.53;5050873;28;20060;-39
2021/10/10 08:34:17;;;;;;;15.80;10.98;;;;;;;11.45;86.43;100573.19;5050710;28;20527;-39
2021/10/10 08:36:43;;;;;;;12.63;9.70;;;;;;;11.49;85.87;100572.59;5051007;28;20029;-38
2021/10/10 08:39:08;;;;;;;11.40;8.75;;;;;;;11.62;84.40;100577.25;5050249;28;20017;-38
2021/10/10 08:41:34;;;;;;;13.60;8.70;;;;;;;11.41;86.32;100574.56;5050447;28;20021;-39
2021/10/10 08:44:02;;;;;;;10.80;6.57;;;;;;;11.39;85.81;100577.41;5049094;28;20035;-38
2021/10/10 08:46:28;;;;;;;8.30;6.45;;;;;;;11.31;85.82;100569.53;5050817;28;20021;-38
2021/10/10 08:48:54;;;;;;;10.02;7.18;;;;;;;11.54;85.43;100569.38;5049984;28;20020;-38
2021/10/10 08:51:20;;;;;;;10.85;6.63;;;;;;;11.63;83.65;100564.72;5050569;28;20373;-38
2021/10/10 08:53:45;;;;;;;8.20;6.57;;;;;;;11.54;84.57;100559.53;5054974;28;20025;-38
2021/10/10 08:56:11;;;;;;;10.85;7.25;;;;;;;11.26;85.60;100566.63;5048200;28;20025;-38
2021/10/10 08:58:41;;;;;;;10.68;8.23;;;;;;;11.35;85.87;100568.16;5030405;28;20013;-38
2021/10/10 09:01:14;;;;;;;12.45;8.43;;;;;;;11.45;85.68;100571.31;5042184;28;20096;-38
2021/10/10 09:03:40;;;;;;;14.55;10.20;;;;;;;11.72;83.88;100571.59;5021557;28;20029;-38
2021/10/10 09:06:05;;;;;;;15.07;11.23;;;;;;;11.65;84.46;100581.34;5030575;28;20036;-38
2021/10/10 09:08:33;;;;;;;21.55;12.88;;;;;;;11.55;84.36;100576.34;5030600;28;20021;-38
2021/10/10 09:10:59;;;;;;;23.33;14.88;;;;;;;11.74;83.89;100567.72;5031962;28;20602;-38
2021/10/10 09:13:34;;;;;;;22.83;15.63;;;;;;;11.46;85.79;100581.00;5030249;28;20025;-38
2021/10/10 09:16:00;;;;;;;22.98;15.48;;;;;;;11.65;84.70;100579.53;5028742;28;20021;-38
2021/10/10 09:18:35;;;;;;;23.58;15.35;;;;;;;11.68;84.57;100573.81;5028370;28;20017;-38
2021/10/10 09:21:17;;;;;;;19.65;13.68;;;;;;;11.67;85.21;100574.84;5027284;28;20068;-38
2021/10/10 09:23:45;;;;;;;18.02;11.88;;;;;;;11.74;83.75;100580.22;5027367;28;20033;-38
2021/10/10 09:26:10;;;;;;;12.50;8.50;;;;;;;11.63;84.07;100594.91;5027094;28;20025;-38
2021/10/10 09:28:36;;;;;;;13.07;8.52;;;;;;;11.20;86.88;100573.50;5026917;28;20022;-38
2021/10/10 09:31:03;;;;;;;11.77;7.03;;;;;;;11.45;84.90;100573.19;5027154;28;20501;-39
2021/10/10 09:33:53;;;;;;;8.77;6.30;;;;;;;11.37;84.15;100575.97;5029046;28;20029;-39
2021/10/10 09:36:24;;;;;;;15.35;6.20;;;;;;;11.47;85.41;100579.97;5030257;28;20070;-39
2021/10/10 09:39:03;;;;;;;16.10;7.20;;;;;;;11.45;84.88;100567.84;5029781;28;20108;-38
2021/10/10 09:41:33;;;;;;;15.00;7.35;;;;;;;11.47;84.32;100582.63;5030068;28;20090;-38
2021/10/10 09:44:35;;;;;;;13.10;7.13;;;;;;;11.39;84.57;100585.41;5029696;28;20032;-37
2021/10/10 09:46:57;;;;;;;13.35;7.40;;;;;;;11.36;85.26;100572.44;5029645;28;20115;-38
2021/10/10 09:49:32;;;;;;;15.83;7.60;;;;;;;11.53;84.78;100581.84;5029634;28;20091;-38
2021/10/10 09:52:07;;;;;;;12.90;8.00;;;;;;;11.40;85.85;100580.91;5031036;28;20101;-38
2021/10/10 09:54:47;;;;;;;18.40;9.02;;;;;;;11.29;86.40;100596.38;5049520;28;20055;-38
2021/10/10 09:57:12;;;;;;;15.50;8.23;;;;;;;11.29;85.62;100593.72;5049577;28;20021;-38
2021/10/10 09:59:38;;;;;;;19.27;9.02;;;;;;;11.31;85.34;100577.53;5049741;28;20024;-39
2021/10/10 10:02:04;;;;;;;17.88;9.45;;;;;;;11.46;85.26;100582.81;5048225;28;20024;-38
2021/10/10 10:04:50;;;;;;;23.73;9.98;;;;;;;11.57;84.53;100590.31;5049362;28;20028;-39
2021/10/10 10:07:19;;;;;;;16.60;10.48;;;;;;;11.44;84.69;100584.84;5049536;28;20143;-39
2021/10/10 10:09:50;;;;;;;19.42;10.05;;;;;;;11.49;84.80;100583.25;5049246;28;20025;-39
2021/10/10 10:12:19;;;;;;;20.05;11.45;;;;;;;11.63;84.86;100581.56;5049484;28;20047;-39
2021/10/10 10:14:52;;;;;;;21.30;11.18;;;;;;;11.64;84.66;100571.72;5049371;28;20440;-38
2021/10/10 10:17:22;;;;;;;19.30;10.55;;;;;;;11.54;84.40;100585.38;5049743;28;20519;-38
2021/10/10 10:19:48;;;;;;;19.17;9.52;;;;;;;11.22;85.03;100560.81;5049911;28;20013;-38
2021/10/10 10:22:13;;;;;;;26.73;10.57;;;;;;;11.38;85.17;100566.94;5050647;28;20024;-39
2021/10/10 10:24:41;;;;;;;18.42;10.73;;;;;;;11.30;86.49;100563.38;5049605;28;20044;-37
2021/10/10 10:27:07;;;;;;;21.15;9.98;;;;;;;11.27;85.51;100570.91;5051784;28;20489;-37
2021/10/10 10:29:32;;;;;;;24.88;10.90;;;;;;;11.34;86.06;100585.97;5052952;28;20032;-37
2021/10/10 10:31:59;;;;;;;26.70;10.10;;;;;;;11.38;85.52;100580.25;5051594;28;20032;-38
2021/10/10 10:34:28;;;;;;;24.45;9.18;;;;;;;11.08;85.93;100561.69;5052140;28;20103;-38
2021/10/10 10:36:53;;;;;;;21.75;9.43;;;;;;;11.11;86.67;100561.31;5053416;28;20025;-38
2021/10/10 10:39:49;;;;;;;23.45;9.88;;;;;;;11.34;86.68;100553.97;5051355;28;20025;-39
2021/10/10 10:42:24;;;;;;;18.08;8.80;;;;;;;11.45;85.17;100557.19;5047553;28;20112;-39
2021/10/10 10:44:53;;;;;;;23.13;10.07;;;;;;;11.45;86.11;100555.34;5052756;28;20365;-38
2021/10/10 10:47:25;;;;;;;30.23;9.90;;;;;;;11.46;86.09;100556.16;5051530;28;20025;-38
2021/10/10 10:49:50;;;;;;;28.30;9.98;;;;;;;11.59;85.86;100561.63;5052443;28;20024;-38
2021/10/10 10:52:27;;;;;;;26.77;9.60;;;;;;;11.58;85.15;100553.84;5051763;28;20029;-38
2021/10/10 10:54:56;;;;;;;19.27;7.72;;;;;;;11.27;86.31;100555.78;5052719;28;20025;-37
2021/10/10 10:57:27;;;;;;;16.60;8.43;;;;;;;11.33;86.32;100559.53;5052345;28;20025;-38
2021/10/10 11:00:09;;;;;;;17.20;8.90;;;;;;;11.38;85.62;100550.94;5052861;28;20027;-38
2021/10/10 11:02:48;;;;;;;29.92;9.73;;;;;;;11.60;85.50;100551.81;5051219;28;20139;-38
2021/10/10 11:05:34;;;;;;;17.77;9.43;;;;;;;11.55;84.31;100557.69;5052367;28;20032;-38
2021/10/10 11:08:22;;;;;;;22.90;8.77;;;;;;;11.11;86.03;100540.00;5051919;28;20048;-38
2021/10/10 11:11:00;;;;;;;21.23;8.98;;;;;;;11.23;86.37;100538.50;5052134;28;20149;-38
2021/10/10 11:13:35;;;;;;;22.52;9.15;;;;;;;11.44;84.69;100536.84;5052508;28;20456;-37
2021/10/10 11:16:16;;;;;;;27.70;9.73;;;;;;;11.14;85.08;100543.13;5052489;28;20412;-37
2021/10/10 11:18:49;;;;;;;24.27;10.13;;;;;;;11.59;84.91;100528.81;5052438;28;20035;-38
2021/10/10 11:21:17;;;;;;;27.98;10.88;;;;;;;11.74;84.13;100532.22;5052139;28;20108;-37
2021/10/10 11:23:43;;;;;;;21.92;9.70;;;;;;;11.83;83.27;100530.25;5051939;28;20109;-38